Hope, Maine
Current Conditions -  °F | °C
As of 5:55 PM on Wednesday 22 Oct 2014 (Local Time) from KRKD Reporting Station
Overcast Overcast  
Wind Chill: 42°   Ceiling: 1000
Heat Index: 48°   Visibility: 10mi
Dew Point: 46°   Wind: 17mph
Humidity: 93%   Direction: 30°NNE
Pressure: 30.08"   Gusts: 33mph
Location:  44.26°N, 69.16°W
Report Text: KRKD 222155Z AUTO 03015G29KT 10SM OVC010 09/08 A3008 RMK AO1
Loading
Personal Weather Stations






























Interactive Weather Map
Tropical Storm Tracking
New forecast layout! Learn more

10-Day Weather Forecast

Advertisements
Track Severe Weather on mobile